createdAt,value
2018-09-08T06:53:11.975Z,999.9
2018-09-08T06:53:32.184Z,999.9
2018-09-08T06:53:52.351Z,999.8
2018-09-08T06:54:12.577Z,999.9
2018-09-08T06:54:32.780Z,999.9
2018-09-08T06:54:52.991Z,999.9
2018-09-08T06:55:13.288Z,999.9
2018-09-08T06:55:33.523Z,999.9
2018-09-08T06:55:53.731Z,999.9
2018-09-08T06:56:13.881Z,999.9
2018-09-08T06:56:34.033Z,999.9
2018-09-08T06:56:54.211Z,999.9
2018-09-08T06:57:14.446Z,999.9
2018-09-08T06:57:34.704Z,999.9
2018-09-08T06:57:54.982Z,999.9
2018-09-08T06:58:15.217Z,999.9
2018-09-08T06:58:35.403Z,1000
2018-09-08T06:58:55.650Z,999.9
2018-09-08T06:59:15.842Z,1000
2018-09-08T06:59:36.086Z,1000
2018-09-08T06:59:56.290Z,1000
2018-09-08T07:00:16.563Z,1000
2018-09-08T07:00:36.785Z,1000
2018-09-08T07:00:57.023Z,1000
2018-09-08T07:01:17.297Z,1000
2018-09-08T07:01:37.844Z,1000
2018-09-08T07:01:58.322Z,1000
2018-09-08T07:02:19.327Z,1000
2018-09-08T07:02:39.557Z,1000
2018-09-08T07:03:00.463Z,1000
2018-09-08T07:03:24.646Z,1000
2018-09-08T07:03:45.956Z,1000
2018-09-08T07:04:06.156Z,1000
2018-09-08T07:04:26.391Z,1000.1
2018-09-08T07:04:46.670Z,1000
2018-09-08T07:05:06.881Z,1000
2018-09-08T07:05:27.117Z,1000
2018-09-08T07:05:47.429Z,1000.1
2018-09-08T07:06:07.902Z,1000
2018-09-08T07:06:28.562Z,1000
2018-09-08T07:06:48.847Z,1000
2018-09-08T07:07:09.090Z,1000
2018-09-08T07:07:29.351Z,1000
2018-09-08T07:07:49.657Z,1000
2018-09-08T07:08:09.921Z,1000
2018-09-08T07:08:30.193Z,1000
2018-09-08T07:08:50.414Z,1000
2018-09-08T07:09:10.663Z,1000
2018-09-08T07:09:30.902Z,1000
2018-09-08T07:09:51.115Z,1000
2018-09-08T07:10:11.315Z,1000
2018-09-08T07:10:31.533Z,1000
2018-09-08T07:10:51.805Z,1000.1
2018-09-08T07:11:12.005Z,1000
2018-09-08T07:11:32.227Z,1000
2018-09-08T07:11:52.516Z,1000.1
2018-09-08T07:12:12.734Z,1000.1
2018-09-08T07:12:32.976Z,1000.1
2018-09-08T07:12:53.236Z,1000
2018-09-08T07:13:13.495Z,1000.1
2018-09-08T07:13:33.857Z,1000.1
2018-09-08T07:13:54.153Z,1000.1
2018-09-08T07:14:14.385Z,1000.1
2018-09-08T07:14:34.688Z,1000.1
2018-09-08T07:14:54.972Z,1000.1
2018-09-08T07:15:15.379Z,1000.1
2018-09-08T07:15:35.544Z,1000.1
2018-09-08T07:15:55.869Z,1000.1
2018-09-08T07:16:16.106Z,1000.1
2018-09-08T07:16:36.415Z,1000.1
2018-09-08T07:16:57.136Z,1000.1
2018-09-08T07:17:17.635Z,1000.1
2018-09-08T07:17:37.959Z,1000.1
2018-09-08T07:17:58.184Z,1000.1
2018-09-08T07:18:18.435Z,1000.1
2018-09-08T07:18:38.627Z,1000.1
2018-09-08T07:18:58.888Z,1000
2018-09-08T07:19:19.133Z,1000.1
2018-09-08T07:19:39.428Z,1000.1
2018-09-08T07:19:59.837Z,1000.1
2018-09-08T07:20:20.097Z,1000.1
2018-09-08T07:20:40.331Z,1000.1
2018-09-08T07:21:00.577Z,1000.1
2018-09-08T07:21:20.811Z,1000.1
2018-09-08T07:21:41.043Z,1000.1
2018-09-08T07:22:02.169Z,1000.1
2018-09-08T07:22:22.466Z,1000.1
2018-09-08T07:22:42.709Z,1000.2
2018-09-08T07:23:03.018Z,1000.1
2018-09-08T07:23:23.353Z,1000.1
2018-09-08T07:23:43.849Z,1000.1
2018-09-08T07:24:04.058Z,1000.1
2018-09-08T07:24:24.397Z,1000.1
2018-09-08T07:24:44.663Z,1000.1
2018-09-08T07:25:04.835Z,1000.1
2018-09-08T07:25:26.046Z,1000.1
2018-09-08T07:25:46.310Z,1000.2
2018-09-08T07:26:06.542Z,1000.1
2018-09-08T07:26:26.785Z,1000.1
2018-09-08T07:26:47.068Z,1000.2
2018-09-08T07:27:07.404Z,1000.1
2018-09-08T07:27:27.743Z,1000.2
2018-09-08T07:27:48.193Z,1000.2
2018-09-08T07:28:08.675Z,1000.2
2018-09-08T07:28:28.982Z,1000.2
2018-09-08T07:28:49.361Z,1000.2
2018-09-08T07:29:09.594Z,1000.2
2018-09-08T07:29:29.819Z,1000.2
2018-09-08T07:29:50.098Z,1000.2
2018-09-08T07:30:10.410Z,1000.2
2018-09-08T07:30:30.647Z,1000.2
2018-09-08T07:30:50.808Z,1000.2
2018-09-08T07:31:11.150Z,1000.3
2018-09-08T07:31:31.427Z,1000.2
2018-09-08T07:31:51.724Z,1000.3
2018-09-08T07:32:12.010Z,1000.2
2018-09-08T07:32:32.286Z,1000.2
2018-09-08T07:32:52.630Z,1000.2
2018-09-08T07:33:12.923Z,1000.2
2018-09-08T07:33:33.351Z,1000.2
2018-09-08T07:33:53.598Z,1000.2
2018-09-08T07:34:13.910Z,1000.3
2018-09-08T07:34:34.448Z,1000.3
2018-09-08T07:34:54.708Z,1000.3
2018-09-08T07:35:14.931Z,1000.3
2018-09-08T07:35:35.191Z,1000.3
2018-09-08T07:35:55.422Z,1000.3
2018-09-08T07:36:15.638Z,1000.3
2018-09-08T07:36:35.976Z,1000.2
2018-09-08T07:36:56.378Z,1000.3
2018-09-08T07:37:16.636Z,1000.3
2018-09-08T07:37:36.868Z,1000.3
2018-09-08T07:37:57.156Z,1000.3
2018-09-08T07:38:17.519Z,1000.3
2018-09-08T07:38:38.007Z,1000.3
2018-09-08T07:38:58.364Z,1000.3
2018-09-08T07:39:18.607Z,1000.3
2018-09-08T07:39:38.970Z,1000.3
2018-09-08T07:39:59.221Z,1000.3
2018-09-08T07:40:19.480Z,1000.3
2018-09-08T07:40:39.663Z,1000.3
2018-09-08T07:40:59.976Z,1000.3
2018-09-08T07:41:20.389Z,1000.3
2018-09-08T07:41:40.746Z,1000.3
2018-09-08T07:42:01.112Z,1000.3
2018-09-08T07:42:21.325Z,1000.3
2018-09-08T07:42:41.549Z,1000.3
2018-09-08T07:43:01.836Z,1000.3
2018-09-08T07:43:22.060Z,1000.3
2018-09-08T07:43:42.496Z,1000.3
2018-09-08T07:44:02.771Z,1000.3
2018-09-08T07:44:23.188Z,1000.3
2018-09-08T07:44:43.612Z,1000.3
2018-09-08T07:45:04.856Z,1000.3
2018-09-08T07:46:47.441Z,1000.3
2018-09-08T07:47:07.974Z,1000.3
2018-09-08T07:47:28.459Z,1000.3
2018-09-08T07:47:48.763Z,1000.3
2018-09-08T07:48:09.070Z,1000.3
2018-09-08T07:48:29.427Z,1000.3
2018-09-08T07:48:49.818Z,1000.3
2018-09-08T07:49:10.188Z,1000.3
2018-09-08T07:49:30.516Z,1000.3
2018-09-08T07:49:50.799Z,1000.3
2018-09-08T07:50:11.113Z,1000.3
2018-09-08T07:50:31.300Z,1000.3
2018-09-08T07:50:52.071Z,1000.3
2018-09-08T07:51:12.989Z,1000.3
2018-09-08T07:51:34.153Z,1000.3
2018-09-08T07:51:57.116Z,1000.3
2018-09-08T07:52:18.878Z,1000.3
2018-09-08T07:52:40.973Z,1000.3
2018-09-08T07:53:02.692Z,1000.3
2018-09-08T07:53:23.213Z,1000.3
2018-09-08T07:53:44.446Z,1000.3
2018-09-08T07:54:05.751Z,1000.3
2018-09-08T07:54:26.375Z,1000.4
2018-09-08T07:54:47.061Z,1000.4
2018-09-08T07:55:10.371Z,1000.3
2018-09-08T07:55:30.734Z,1000.3
2018-09-08T07:55:51.715Z,1000.3
2018-09-08T07:56:13.546Z,1000.3
2018-09-08T07:56:34.565Z,1000.3
2018-09-08T07:56:55.313Z,1000.3
2018-09-08T07:57:16.091Z,1000.3
2018-09-08T07:57:36.708Z,1000.3
2018-09-08T07:57:57.142Z,1000.3
2018-09-08T07:58:17.512Z,1000.4
2018-09-08T07:58:38.349Z,1000.3
2018-09-08T07:58:58.767Z,1000.3
2018-09-08T07:59:19.293Z,1000.3
2018-09-08T07:59:39.907Z,1000.3
2018-09-08T08:00:00.242Z,1000.3
2018-09-08T08:00:20.483Z,1000.3
2018-09-08T08:00:42.617Z,1000.4
2018-09-08T08:01:02.939Z,1000.4
2018-09-08T08:01:24.255Z,1000.3
2018-09-08T08:01:44.512Z,1000.3
2018-09-08T08:02:04.776Z,1000.3
2018-09-08T08:02:25.089Z,1000.4
2018-09-08T08:02:45.316Z,1000.4
2018-09-08T08:03:05.646Z,1000.4
2018-09-08T08:03:25.914Z,1000.4
2018-09-08T08:03:46.126Z,1000.4
2018-09-08T08:04:06.344Z,1000.4
2018-09-08T08:04:26.592Z,1000.4
2018-09-08T08:04:46.830Z,1000.4
2018-09-08T08:05:07.077Z,1000.4
2018-09-08T08:05:27.276Z,1000.4
2018-09-08T08:05:47.513Z,1000.4
2018-09-08T08:06:07.749Z,1000.4
2018-09-08T08:06:27.960Z,1000.4
2018-09-08T08:06:48.264Z,1000.4
2018-09-08T08:07:08.505Z,1000.4
2018-09-08T08:07:28.825Z,1000.4
2018-09-08T08:07:49.839Z,1000.4
2018-09-08T08:08:10.371Z,1000.4
2018-09-08T08:08:30.812Z,1000.4
2018-09-08T08:08:51.024Z,1000.4
2018-09-08T08:09:11.482Z,1000.4
2018-09-08T08:09:31.739Z,1000.4
2018-09-08T08:09:52.003Z,1000.4
2018-09-08T08:10:12.146Z,1000.4
2018-09-08T08:10:32.401Z,1000.4
2018-09-08T08:10:52.627Z,1000.4
2018-09-08T08:11:12.780Z,1000.4
2018-09-08T08:11:32.973Z,1000.4
2018-09-08T08:11:53.267Z,1000.4
2018-09-08T08:12:13.607Z,1000.4
2018-09-08T08:12:34.175Z,1000.5
2018-09-08T08:12:54.403Z,1000.5
2018-09-08T08:13:14.663Z,1000.4
2018-09-08T08:13:34.901Z,1000.5
2018-09-08T08:13:55.142Z,1000.5
2018-09-08T08:14:15.463Z,1000.5
2018-09-08T08:14:35.852Z,1000.4
2018-09-08T08:14:56.093Z,1000.4
2018-09-08T08:15:16.397Z,1000.4
2018-09-08T08:15:36.637Z,1000.4
2018-09-08T08:15:56.969Z,1000.5
2018-09-08T08:16:17.144Z,1000.5
2018-09-08T08:16:38.196Z,1000.5
2018-09-08T08:16:58.448Z,1000.4
2018-09-08T08:17:18.692Z,1000.5
2018-09-08T08:17:39.049Z,1000.5
2018-09-08T08:17:59.300Z,1000.5
2018-09-08T08:18:19.563Z,1000.5
2018-09-08T08:18:39.768Z,1000.5
2018-09-08T08:18:59.967Z,1000.5
2018-09-08T08:19:20.202Z,1000.5
2018-09-08T08:19:40.401Z,1000.5
2018-09-08T08:20:00.605Z,1000.5
2018-09-08T08:20:20.950Z,1000.5
2018-09-08T08:20:41.452Z,1000.5
2018-09-08T08:21:01.749Z,1000.5
2018-09-08T08:21:22.229Z,1000.5
2018-09-08T08:21:42.491Z,1000.5
2018-09-08T08:22:03.869Z,1000.5
2018-09-08T08:22:25.116Z,1000.5
2018-09-08T08:22:45.379Z,1000.5
2018-09-08T08:23:05.663Z,1000.5
2018-09-08T08:23:26.004Z,1000.5
2018-09-08T08:23:46.217Z,1000.5
2018-09-08T08:24:06.477Z,1000.5
2018-09-08T08:24:26.764Z,1000.5
2018-09-08T08:24:47.184Z,1000.5
2018-09-08T08:25:07.410Z,1000.5
2018-09-08T08:25:27.714Z,1000.5
2018-09-08T08:25:47.947Z,1000.4
2018-09-08T08:26:08.627Z,1000.5
2018-09-08T08:26:29.127Z,1000.5
2018-09-08T08:26:49.656Z,1000.5
2018-09-08T08:27:09.888Z,1000.4
2018-09-08T08:27:30.099Z,1000.5
2018-09-08T08:27:50.310Z,1000.5
2018-09-08T08:28:10.745Z,1000.5
2018-09-08T08:28:31.084Z,1000.5
2018-09-08T08:28:51.325Z,1000.5
2018-09-08T08:29:11.563Z,1000.5
2018-09-08T08:29:31.990Z,1000.5
2018-09-08T08:29:52.269Z,1000.5
2018-09-08T08:30:14.322Z,1000.5
2018-09-08T08:30:34.613Z,1000.5
2018-09-08T08:30:54.808Z,1000.5
2018-09-08T08:31:16.255Z,1000.5
2018-09-08T08:31:37.315Z,1000.5
2018-09-08T08:31:57.507Z,1000.5
2018-09-08T08:32:17.736Z,1000.5
2018-09-08T08:32:37.952Z,1000.5
2018-09-08T08:32:58.177Z,1000.5
2018-09-08T08:33:18.516Z,1000.5
2018-09-08T08:33:38.767Z,1000.5
2018-09-08T08:33:59.001Z,1000.5
2018-09-08T08:34:19.272Z,1000.5
2018-09-08T08:34:39.438Z,1000.5
2018-09-08T08:34:59.711Z,1000.5
2018-09-08T08:35:20.023Z,1000.5
2018-09-08T08:35:40.257Z,1000.6
2018-09-08T08:36:00.524Z,1000.5
2018-09-08T08:36:20.739Z,1000.5
2018-09-08T08:36:41.176Z,1000.5
2018-09-08T08:37:01.384Z,1000.5
2018-09-08T08:37:21.890Z,1000.5
2018-09-08T08:37:42.021Z,1000.5
2018-09-08T08:38:02.022Z,1000.5
2018-09-08T08:38:22.380Z,1000.5
2018-09-08T08:38:42.564Z,1000.5
2018-09-08T08:39:02.797Z,1000.5
2018-09-08T08:39:22.986Z,1000.5
2018-09-08T08:39:43.421Z,1000.5
2018-09-08T08:40:03.667Z,1000.5
2018-09-08T08:40:23.962Z,1000.5
2018-09-08T08:40:44.276Z,1000.5
2018-09-08T08:41:04.540Z,1000.5
2018-09-08T08:41:25.285Z,1000.5
2018-09-08T08:41:45.558Z,1000.6
2018-09-08T08:42:05.855Z,1000.5
2018-09-08T08:42:26.334Z,1000.6
2018-09-08T08:42:46.594Z,1000.5
2018-09-08T08:43:06.880Z,1000.5
2018-09-08T08:43:27.290Z,1000.6
2018-09-08T08:43:47.603Z,1000.6
2018-09-08T08:44:07.917Z,1000.6
2018-09-08T08:44:28.236Z,1000.6
2018-09-08T08:44:48.592Z,1000.5
2018-09-08T08:45:08.976Z,1000.5
2018-09-08T08:45:29.240Z,1000.5
2018-09-08T08:45:49.433Z,1000.5
2018-09-08T08:46:09.691Z,1000.5
2018-09-08T08:46:30.205Z,1000.5
2018-09-08T08:46:51.248Z,1000.6
2018-09-08T08:47:11.491Z,1000.5
2018-09-08T08:47:31.638Z,1000.5
2018-09-08T08:47:52.004Z,1000.5
2018-09-08T08:48:12.305Z,1000.5
2018-09-08T08:48:32.515Z,1000.5
2018-09-08T08:48:52.717Z,1000.5
2018-09-08T08:49:12.933Z,1000.5
2018-09-08T08:49:33.557Z,1000.5
2018-09-08T08:49:53.900Z,1000.6
2018-09-08T08:50:14.015Z,1000.5
2018-09-08T08:50:34.243Z,1000.5
2018-09-08T08:50:54.764Z,1000.5
2018-09-08T08:51:14.940Z,1000.5
2018-09-08T08:51:35.112Z,1000.5
2018-09-08T08:51:55.268Z,1000.6
2018-09-08T08:52:15.614Z,1000.6
2018-09-08T08:52:35.913Z,1000.6
2018-09-08T08:52:55.946Z,1000.5
2018-09-08T08:53:16.234Z,1000.5
2018-09-08T08:53:36.447Z,1000.5
2018-09-08T08:53:56.886Z,1000.5
2018-09-08T08:54:17.045Z,1000.5
2018-09-08T08:54:37.257Z,1000.6
2018-09-08T08:54:57.522Z,1000.5
2018-09-08T08:55:17.738Z,1000.6
2018-09-08T08:55:37.967Z,1000.6
2018-09-08T08:55:58.199Z,1000.6
2018-09-08T08:56:18.464Z,1000.6
2018-09-08T08:56:38.797Z,1000.6
2018-09-08T08:56:59.021Z,1000.5
2018-09-08T08:57:19.204Z,1000.6
2018-09-08T08:57:39.524Z,1000.6
2018-09-08T08:57:59.772Z,1000.5
2018-09-08T08:58:19.971Z,1000.6
2018-09-08T08:58:40.182Z,1000.6
2018-09-08T08:59:00.453Z,1000.5
2018-09-08T08:59:20.737Z,1000.6
2018-09-08T08:59:40.993Z,1000.6
2018-09-08T09:00:01.218Z,1000.5
2018-09-08T09:00:21.370Z,1000.6
2018-09-08T09:00:41.600Z,1000.6
2018-09-08T09:01:01.840Z,1000.5
2018-09-08T09:01:22.012Z,1000.6
2018-09-08T09:01:42.253Z,1000.6
2018-09-08T09:02:02.462Z,1000.6
2018-09-08T09:02:22.624Z,1000.6
2018-09-08T09:02:42.842Z,1000.6
2018-09-08T09:03:03.094Z,1000.6
2018-09-08T09:03:23.325Z,1000.6
2018-09-08T09:03:43.515Z,1000.6
2018-09-08T09:04:03.725Z,1000.6
2018-09-08T09:04:23.963Z,1000.5
2018-09-08T09:04:44.320Z,1000.5
2018-09-08T09:05:04.560Z,1000.6
2018-09-08T09:05:24.746Z,1000.5
2018-09-08T09:05:44.932Z,1000.6
2018-09-08T09:06:05.102Z,1000.6
2018-09-08T09:06:25.284Z,1000.6
2018-09-08T09:06:45.460Z,1000.6
2018-09-08T09:07:06.349Z,1000.6
2018-09-08T09:07:27.056Z,1000.6
2018-09-08T09:07:47.414Z,1000.6
2018-09-08T09:08:07.602Z,1000.6
2018-09-08T09:08:28.241Z,1000.6
2018-09-08T09:08:49.807Z,1000.6
2018-09-08T09:09:09.468Z,1000.6
2018-09-08T09:09:29.694Z,1000.6
2018-09-08T09:09:49.881Z,1000.6
2018-09-08T09:10:10.018Z,1000.6
2018-09-08T09:10:30.240Z,1000.6
2018-09-08T09:10:50.531Z,1000.6
2018-09-08T09:11:10.724Z,1000.6
2018-09-08T09:11:30.929Z,1000.6
2018-09-08T09:11:52.108Z,1000.6
2018-09-08T09:12:11.776Z,1000.6
2018-09-08T09:12:32.188Z,1000.6
2018-09-08T09:12:52.581Z,1000.6
2018-09-08T09:13:13.052Z,1000.6
2018-09-08T09:13:33.276Z,1000.6
2018-09-08T09:13:53.477Z,1000.6
2018-09-08T09:14:13.655Z,1000.6
2018-09-08T09:14:34.157Z,1000.6
2018-09-08T09:14:55.080Z,1000.6
2018-09-08T09:15:16.806Z,1000.6
2018-09-08T09:15:39.257Z,1000.6
2018-09-08T09:15:59.415Z,1000.6
2018-09-08T09:16:20.199Z,1000.6
2018-09-08T09:16:40.438Z,1000.6
2018-09-08T09:17:00.675Z,1000.6
2018-09-08T09:17:20.924Z,1000.6
2018-09-08T09:17:41.135Z,1000.6
2018-09-08T09:18:01.344Z,1000.6
2018-09-08T09:18:21.912Z,1000.6
2018-09-08T09:18:43.385Z,1000.6
2018-09-08T09:19:03.574Z,1000.6
2018-09-08T09:19:23.948Z,1000.6
2018-09-08T09:19:44.303Z,1000.6
2018-09-08T09:20:04.542Z,1000.5
2018-09-08T09:20:24.719Z,1000.5
2018-09-08T09:20:44.902Z,1000.5
2018-09-08T09:21:05.094Z,1000.5
2018-09-08T09:21:25.911Z,1000.4
2018-09-08T09:21:46.237Z,1000.5
2018-09-08T09:22:06.484Z,1000.5
2018-09-08T09:22:26.720Z,1000.5
2018-09-08T09:22:47.817Z,1000.5
2018-09-08T09:23:08.042Z,1000.4
2018-09-08T09:23:30.394Z,1000.5
2018-09-08T09:23:50.619Z,1000.5
2018-09-08T09:24:10.949Z,1000.5
2018-09-08T09:24:31.146Z,1000.5
2018-09-08T09:24:53.159Z,1000.5
2018-09-08T09:25:12.821Z,1000.5
2018-09-08T09:25:33.001Z,1000.5
2018-09-08T09:25:53.210Z,1000.5
2018-09-08T09:26:13.467Z,1000.5
2018-09-08T09:26:33.671Z,1000.5
2018-09-08T09:26:53.875Z,1000.5
2018-09-08T09:27:14.103Z,1000.5
2018-09-08T09:27:34.365Z,1000.5
2018-09-08T09:27:54.507Z,1000.5
2018-09-08T09:28:14.679Z,1000.5
2018-09-08T09:28:34.993Z,1000.5
2018-09-08T09:28:55.190Z,1000.5
2018-09-08T09:29:15.371Z,1000.5
2018-09-08T09:29:35.619Z,1000.5
2018-09-08T09:29:55.849Z,1000.5
2018-09-08T09:30:16.065Z,1000.5
2018-09-08T09:30:36.405Z,1000.5
2018-09-08T09:30:56.616Z,1000.5
2018-09-08T09:31:16.843Z,1000.5
2018-09-08T09:31:37.058Z,1000.5
2018-09-08T09:31:57.243Z,1000.5
2018-09-08T09:32:17.413Z,1000.5
2018-09-08T09:32:37.658Z,1000.5
2018-09-08T09:32:57.883Z,1000.5
2018-09-08T09:33:18.090Z,1000.4
2018-09-08T09:33:38.296Z,1000.4
2018-09-08T09:33:58.536Z,1000.5
2018-09-08T09:34:18.707Z,1000.4
2018-09-08T09:34:38.935Z,1000.4
2018-09-08T09:34:59.129Z,1000.4
2018-09-08T09:35:19.375Z,1000.4
2018-09-08T09:35:39.586Z,1000.4
2018-09-08T09:35:59.806Z,1000.5
2018-09-08T09:36:20.908Z,1000.4
2018-09-08T09:36:41.083Z,1000.4
2018-09-08T09:37:01.311Z,1000.4
2018-09-08T09:37:21.556Z,1000.4
2018-09-08T09:37:41.769Z,1000.4
2018-09-08T09:38:01.954Z,1000.5
2018-09-08T09:38:22.131Z,1000.4
2018-09-08T09:38:42.339Z,1000.5
2018-09-08T09:39:02.552Z,1000.5
2018-09-08T09:39:22.769Z,1000.4
2018-09-08T09:39:42.965Z,1000.4
2018-09-08T09:40:03.200Z,1000.4
2018-09-08T09:40:23.407Z,1000.4
2018-09-08T09:40:43.623Z,1000.4
2018-09-08T09:41:03.797Z,1000.4
2018-09-08T09:41:24.063Z,1000.5
2018-09-08T09:41:44.224Z,1000.5
2018-09-08T09:42:04.360Z,1000.4
2018-09-08T09:42:24.548Z,1000.4
2018-09-08T09:42:44.819Z,1000.4
2018-09-08T09:43:04.987Z,1000.4
2018-09-08T09:43:25.211Z,1000.4
2018-09-08T09:43:45.423Z,1000.4
2018-09-08T09:44:05.681Z,1000.4
2018-09-08T09:44:26.064Z,1000.4
2018-09-08T09:44:46.246Z,1000.4
2018-09-08T09:45:06.409Z,1000.5
2018-09-08T09:45:26.614Z,1000.4
2018-09-08T09:45:46.799Z,1000.4
2018-09-08T09:46:06.956Z,1000.4
2018-09-08T09:46:27.114Z,1000.4
2018-09-08T09:46:47.324Z,1000.4
2018-09-08T09:47:07.890Z,1000.4
2018-09-08T09:47:28.123Z,1000.4
2018-09-08T09:47:48.298Z,1000.4
2018-09-08T09:48:08.484Z,1000.4
2018-09-08T09:48:28.711Z,1000.4
2018-09-08T09:48:48.919Z,1000.4
2018-09-08T09:49:09.039Z,1000.4
2018-09-08T09:49:29.286Z,1000.4
2018-09-08T09:49:49.454Z,1000.4
2018-09-08T09:50:09.659Z,1000.4
2018-09-08T09:50:29.824Z,1000.4
2018-09-08T09:50:50.014Z,1000.4
2018-09-08T09:51:10.253Z,1000.4
2018-09-08T09:51:30.414Z,1000.4
2018-09-08T09:51:50.582Z,1000.4
2018-09-08T09:52:10.761Z,1000.4
2018-09-08T09:52:31.005Z,1000.4
2018-09-08T09:52:51.189Z,1000.4
2018-09-08T09:53:11.440Z,1000.4
2018-09-08T09:53:31.719Z,1000.4
2018-09-08T09:53:52.035Z,1000.4
2018-09-08T09:54:12.225Z,1000.4
2018-09-08T09:54:32.434Z,1000.4
2018-09-08T09:54:52.690Z,1000.4
2018-09-08T09:55:12.862Z,1000.4
2018-09-08T09:55:33.061Z,1000.4
2018-09-08T09:55:53.314Z,1000.4
2018-09-08T09:56:13.478Z,1000.4
2018-09-08T09:56:34.247Z,1000.4
2018-09-08T09:56:54.399Z,1000.4
2018-09-08T09:57:14.580Z,1000.4
2018-09-08T09:57:34.857Z,1000.4
2018-09-08T09:57:55.031Z,1000.4
2018-09-08T09:58:15.230Z,1000.4
2018-09-08T09:58:35.614Z,1000.4
2018-09-08T09:58:55.864Z,1000.4
2018-09-08T09:59:18.155Z,1000.4
2018-09-08T09:59:38.476Z,1000.4
2018-09-08T09:59:58.736Z,1000.4
2018-09-08T10:00:18.999Z,1000.4
2018-09-08T10:00:39.380Z,1000.3
2018-09-08T10:00:59.601Z,1000.4
2018-09-08T10:01:19.852Z,1000.3
2018-09-08T10:01:40.061Z,1000.4
2018-09-08T10:02:00.254Z,1000.4
2018-09-08T10:02:20.458Z,1000.3
2018-09-08T10:02:40.704Z,1000.4
2018-09-08T10:03:00.855Z,1000.3
2018-09-08T10:03:21.727Z,1000.3
2018-09-08T10:03:42.567Z,1000.3
2018-09-08T10:04:02.760Z,1000.4
2018-09-08T10:04:22.951Z,1000.3
2018-09-08T10:04:43.138Z,1000.3
2018-09-08T10:05:03.373Z,1000.4
2018-09-08T10:05:23.670Z,1000.3
2018-09-08T10:05:43.885Z,1000.4
2018-09-08T10:06:04.822Z,1000.4
2018-09-08T10:06:25.048Z,1000.4
2018-09-08T10:06:45.289Z,1000.4
2018-09-08T10:07:05.577Z,1000.4
2018-09-08T10:07:25.716Z,1000.4
2018-09-08T10:07:45.910Z,1000.4
2018-09-08T10:08:06.144Z,1000.4
2018-09-08T10:08:26.426Z,1000.3
2018-09-08T10:08:46.649Z,1000.4
2018-09-08T10:09:07.195Z,1000.4
2018-09-08T10:09:27.422Z,1000.4
2018-09-08T10:09:47.641Z,1000.4
2018-09-08T10:10:07.806Z,1000.3
2018-09-08T10:10:27.968Z,1000.4
2018-09-08T10:10:48.208Z,1000.3
2018-09-08T10:11:08.393Z,1000.4
2018-09-08T10:11:29.327Z,1000.4
2018-09-08T10:11:49.537Z,1000.4
2018-09-08T10:12:09.763Z,1000.3
2018-09-08T10:12:29.968Z,1000.3
2018-09-08T10:12:50.130Z,1000.4
2018-09-08T10:13:10.308Z,1000.4
2018-09-08T10:13:30.504Z,1000.3
2018-09-08T10:13:50.736Z,1000.4
2018-09-08T10:14:10.947Z,1000.4
2018-09-08T10:14:31.172Z,1000.4
2018-09-08T10:14:51.367Z,1000.3
2018-09-08T10:15:11.498Z,1000.4
2018-09-08T10:15:31.675Z,1000.4
2018-09-08T10:15:51.849Z,1000.4
2018-09-08T10:16:12.025Z,1000.4
2018-09-08T10:16:32.244Z,1000.4
2018-09-08T10:16:52.471Z,1000.4
2018-09-08T10:17:12.653Z,1000.4
2018-09-08T10:17:32.813Z,1000.4
2018-09-08T10:17:53.015Z,1000.4
2018-09-08T10:18:13.168Z,1000.4
2018-09-08T10:18:33.368Z,1000.4
2018-09-08T10:18:53.582Z,1000.4
2018-09-08T10:19:13.764Z,1000.4
2018-09-08T10:19:33.934Z,1000.4
2018-09-08T10:19:54.179Z,1000.4
2018-09-08T10:20:14.719Z,1000.5
2018-09-08T10:20:34.967Z,1000.4
2018-09-08T10:20:55.179Z,1000.4
2018-09-08T10:21:15.545Z,1000.5
2018-09-08T10:21:36.492Z,1000.4
2018-09-08T10:21:56.887Z,1000.5
2018-09-08T10:22:17.077Z,1000.4
2018-09-08T10:22:37.965Z,1000.4
2018-09-08T10:22:58.422Z,1000.4
2018-09-08T10:23:18.885Z,1000.4
2018-09-08T10:23:39.001Z,1000.4
2018-09-08T10:24:14.609Z,1000.5
2018-09-08T10:24:34.875Z,1000.4
2018-09-08T10:24:55.666Z,1000.4
2018-09-08T10:25:15.846Z,1000.4
2018-09-08T10:25:36.063Z,1000.4
2018-09-08T10:25:56.284Z,1000.4
2018-09-08T10:26:16.473Z,1000.4
2018-09-08T10:26:36.934Z,1000.4
2018-09-08T10:26:57.463Z,1000.4
2018-09-08T10:27:17.786Z,1000.4
2018-09-08T10:27:38.101Z,1000.4
2018-09-08T10:27:58.259Z,1000.4
2018-09-08T11:42:24.065Z,1000.1
2018-09-08T11:42:44.211Z,1000.1
2018-09-08T11:43:04.411Z,1000.2
2018-09-08T11:43:24.902Z,1000.1
2018-09-08T11:43:45.040Z,1000.1
2018-09-08T11:44:05.214Z,1000.1
2018-09-08T11:44:25.368Z,1000.1
2018-09-08T11:44:45.581Z,1000.1
2018-09-08T11:45:05.964Z,1000.1
2018-09-08T11:45:26.149Z,1000.1
2018-09-08T11:45:46.341Z,1000.1
2018-09-08T11:46:06.510Z,1000.1
2018-09-08T11:46:26.728Z,1000.1
2018-09-08T11:46:46.966Z,1000.1
2018-09-08T11:47:07.156Z,1000.1
2018-09-08T11:47:27.413Z,1000.1
2018-09-08T11:47:47.565Z,1000.2
2018-09-08T11:48:07.794Z,1000.2
2018-09-08T11:48:27.972Z,1000.2
2018-09-08T11:48:48.159Z,1000.2
2018-09-08T11:49:08.338Z,1000.2
2018-09-08T11:49:28.509Z,1000.2
2018-09-08T11:49:48.733Z,1000.1
2018-09-08T11:50:08.918Z,1000.1
2018-09-08T11:50:29.300Z,1000.1
2018-09-08T11:50:49.751Z,1000.2
2018-09-08T11:51:10.015Z,1000.2
2018-09-08T11:51:30.211Z,1000.2
2018-09-08T11:51:50.376Z,1000.2
2018-09-08T11:52:10.612Z,1000.2
2018-09-08T11:52:30.801Z,1000.2
2018-09-08T11:52:51.013Z,1000.1
2018-09-08T11:53:11.198Z,1000.1
2018-09-08T11:53:31.467Z,1000.1
2018-09-08T11:53:51.822Z,1000.1
2018-09-08T11:54:12.127Z,1000.1
2018-09-08T11:54:32.384Z,1000.1
2018-09-08T11:54:52.580Z,1000.1
2018-09-08T11:55:12.739Z,1000.1
2018-09-08T11:55:32.927Z,1000.1
2018-09-08T11:55:53.277Z,1000.2
2018-09-08T11:56:13.547Z,1000.1
2018-09-08T11:56:33.697Z,1000.2
2018-09-08T11:56:53.856Z,1000.1
2018-09-08T11:57:14.004Z,1000.1
2018-09-08T11:57:34.211Z,1000.1
2018-09-08T11:57:54.376Z,1000.1
2018-09-08T11:58:14.623Z,1000.1
2018-09-08T11:58:34.851Z,1000.1
2018-09-08T11:58:55.080Z,1000.1
2018-09-08T11:59:15.255Z,1000.1
2018-09-08T11:59:35.511Z,1000.1
2018-09-08T11:59:55.635Z,1000.1
2018-09-08T12:00:15.802Z,1000.1
2018-09-08T12:00:35.977Z,1000.1
2018-09-08T12:00:56.187Z,1000.1
2018-09-08T12:01:16.354Z,1000.1
2018-09-08T12:01:39.280Z,1000.1
2018-09-08T12:01:59.459Z,1000.1
2018-09-08T12:02:19.827Z,1000.1
2018-09-08T12:02:39.891Z,1000.1
2018-09-08T12:03:00.179Z,1000.1
2018-09-08T12:03:20.272Z,1000.1
2018-09-08T12:03:40.532Z,1000.2
2018-09-08T12:04:00.994Z,1000.1
2018-09-08T12:04:21.897Z,1000.1
2018-09-08T12:04:42.081Z,1000.1
2018-09-08T12:05:02.263Z,1000.1
2018-09-08T12:05:22.420Z,1000.1
2018-09-08T12:05:42.614Z,1000.2
2018-09-08T12:06:02.805Z,1000.1
2018-09-08T12:06:23.025Z,1000.1
2018-09-08T12:06:43.190Z,1000.1
2018-09-08T12:07:03.388Z,1000.2
2018-09-08T12:07:23.542Z,1000.1
2018-09-08T12:07:43.707Z,1000.1
2018-09-08T12:08:03.943Z,1000.1
2018-09-08T12:08:24.071Z,1000.1
2018-09-08T12:08:44.236Z,1000.1
2018-09-08T12:09:04.403Z,1000.1
2018-09-08T12:09:24.578Z,1000.1
2018-09-08T12:09:44.815Z,1000.1
2018-09-08T12:10:05.007Z,1000.1
2018-09-08T12:10:25.212Z,1000.1
2018-09-08T12:10:45.497Z,1000.1
2018-09-08T12:11:05.811Z,1000
2018-09-08T12:11:26.010Z,1000
2018-09-08T12:11:46.216Z,1000
2018-09-08T12:12:06.384Z,1000
2018-09-08T12:12:26.572Z,1000.1
2018-09-08T12:12:46.748Z,1000.1
2018-09-08T12:13:06.985Z,1000
2018-09-08T12:13:27.197Z,1000
2018-09-08T12:13:47.419Z,1000
2018-09-08T12:14:07.621Z,1000
2018-09-08T12:14:27.878Z,1000
2018-09-08T12:14:48.104Z,1000
2018-09-08T12:15:08.399Z,1000
2018-09-08T12:15:28.611Z,1000
2018-09-08T12:15:49.188Z,1000
2018-09-08T12:16:09.444Z,1000
2018-09-08T12:16:29.665Z,999.9
2018-09-08T12:16:49.815Z,1000
2018-09-08T12:17:10.029Z,1000
2018-09-08T12:17:30.209Z,1000
2018-09-08T12:17:51.231Z,1000
2018-09-08T12:18:11.459Z,1000
2018-09-08T12:18:31.631Z,1000
2018-09-08T12:18:51.803Z,1000
2018-09-08T12:19:12.060Z,999.9
2018-09-08T12:19:32.376Z,999.9
2018-09-08T12:19:52.574Z,999.9
2018-09-08T12:20:12.768Z,999.9
2018-09-08T12:20:32.964Z,1000
2018-09-08T12:21:47.848Z,999.9
2018-09-08T12:22:08.063Z,999.9
2018-09-08T12:22:28.276Z,999.9
2018-09-08T12:22:48.440Z,1000
2018-09-08T12:23:08.619Z,999.9
2018-09-08T12:23:28.770Z,999.9
2018-09-08T12:23:48.925Z,1000
2018-09-08T12:24:09.113Z,999.9
2018-09-08T12:24:29.274Z,999.9
2018-09-08T12:24:49.413Z,999.9
2018-09-08T12:25:09.600Z,999.9